createdAt,value
2023-05-19T00:01:18.566Z,42.05
2023-05-19T00:04:14.706Z,42.09
2023-05-19T00:07:11.647Z,41.93
2023-05-19T00:10:07.516Z,41.93
2023-05-19T00:13:02.496Z,42.04
2023-05-19T00:15:57.655Z,42.04
2023-05-19T00:18:51.866Z,42.17
2023-05-19T00:21:46.120Z,42.35
2023-05-19T00:24:40.276Z,42.27
2023-05-19T00:27:34.180Z,42.10
2023-05-19T00:30:29.196Z,41.98
2023-05-19T00:33:23.862Z,42.20
2023-05-19T00:36:18.702Z,42.13
2023-05-19T00:39:13.004Z,42.08
2023-05-19T00:42:07.537Z,42.24
2023-05-19T00:45:01.526Z,42.27
2023-05-19T00:47:55.878Z,42.24
2023-05-19T00:50:51.371Z,42.35
2023-05-19T00:53:49.489Z,42.33
2023-05-19T00:56:43.620Z,42.51
2023-05-19T00:59:37.975Z,42.41
2023-05-19T01:02:32.474Z,42.57
2023-05-19T01:05:26.826Z,42.35
2023-05-19T01:08:21.140Z,42.45
2023-05-19T01:11:15.297Z,42.58
2023-05-19T01:14:09.579Z,42.49
2023-05-19T01:17:19.427Z,42.43
2023-05-19T01:20:22.039Z,42.60
2023-05-19T01:23:36.748Z,42.50
2023-05-19T01:26:57.439Z,42.41
2023-05-19T01:30:23.925Z,42.41
2023-05-19T01:33:20.278Z,42.74
2023-05-19T01:36:16.134Z,42.72
2023-05-19T01:39:10.726Z,42.76
2023-05-19T01:42:05.421Z,42.68
2023-05-19T01:45:00.166Z,42.79
2023-05-19T01:48:01.778Z,42.75
2023-05-19T01:50:57.339Z,42.78
2023-05-19T01:53:51.447Z,42.57
2023-05-19T01:57:01.597Z,42.84
2023-05-19T02:00:21.316Z,42.72
2023-05-19T02:03:27.828Z,42.72
2023-05-19T02:06:41.074Z,42.69
2023-05-19T02:09:45.845Z,42.75
2023-05-19T02:12:41.752Z,42.70
2023-05-19T02:15:42.071Z,42.86
2023-05-19T02:18:37.013Z,42.77
2023-05-19T02:21:31.210Z,42.85
2023-05-19T02:24:25.738Z,42.77
2023-05-19T02:27:19.902Z,42.76
2023-05-19T02:30:15.616Z,42.77
2023-05-19T02:33:11.454Z,42.60
2023-05-19T02:36:05.656Z,42.75
2023-05-19T02:39:01.064Z,43.02
2023-05-19T02:41:55.290Z,42.77
2023-05-19T02:44:50.015Z,42.89
2023-05-19T02:47:44.231Z,42.62
2023-05-19T02:50:38.384Z,42.83
2023-05-19T02:53:33.303Z,43.16
2023-05-19T02:56:28.259Z,43.30
2023-05-19T02:59:25.418Z,43.96
2023-05-19T03:02:19.773Z,43.24
2023-05-19T03:05:15.294Z,43.09
2023-05-19T03:08:09.743Z,43.08
2023-05-19T03:11:03.735Z,43.00
2023-05-19T03:13:57.454Z,43.01
2023-05-19T03:16:51.540Z,43.14
2023-05-19T03:19:45.618Z,43.29
2023-05-19T03:22:39.716Z,42.96
2023-05-19T03:25:33.600Z,43.23
2023-05-19T03:28:28.118Z,43.32
2023-05-19T03:31:21.969Z,43.42
2023-05-19T03:34:16.215Z,43.42
2023-05-19T03:37:10.813Z,43.23
2023-05-19T03:40:05.903Z,43.33
2023-05-19T03:43:01.139Z,43.25
2023-05-19T03:45:55.195Z,43.19
2023-05-19T03:48:49.337Z,43.22
2023-05-19T03:51:43.228Z,43.30
2023-05-19T03:54:38.890Z,43.45
2023-05-19T03:57:33.658Z,43.28
2023-05-19T04:00:27.613Z,43.36
2023-05-19T04:03:21.687Z,43.31
2023-05-19T04:06:15.939Z,43.23
2023-05-19T04:09:16.547Z,43.29
2023-05-19T04:12:11.889Z,43.38
2023-05-19T04:15:07.086Z,43.16
2023-05-19T04:18:01.586Z,43.01
2023-05-19T04:20:55.451Z,43.12
2023-05-19T04:23:50.017Z,43.16
2023-05-19T04:26:46.813Z,43.20
2023-05-19T04:29:41.154Z,43.14
2023-05-19T04:32:37.687Z,43.34
2023-05-19T04:35:31.849Z,43.20
2023-05-19T04:38:26.158Z,43.33
2023-05-19T04:41:21.115Z,43.46
2023-05-19T04:44:18.490Z,43.44
2023-05-19T04:47:11.373Z,43.25
2023-05-19T04:50:05.863Z,43.34
2023-05-19T04:53:02.616Z,43.35
2023-05-19T04:55:56.733Z,43.41
2023-05-19T04:58:50.845Z,43.48
2023-05-19T05:01:44.958Z,43.59
2023-05-19T05:04:42.564Z,43.53
2023-05-19T05:07:34.887Z,43.74
2023-05-19T05:10:29.164Z,43.64
2023-05-19T05:13:25.269Z,43.53
2023-05-19T05:16:21.323Z,45.46
2023-05-19T05:19:25.106Z,44.27
2023-05-19T05:22:21.046Z,43.80
2023-05-19T05:25:19.443Z,43.78
2023-05-19T05:28:13.638Z,43.82
2023-05-19T05:31:07.933Z,43.89
2023-05-19T05:34:02.897Z,44.03
2023-05-19T05:36:57.546Z,43.81
2023-05-19T05:39:40.185Z,43.74
2023-05-19T05:42:34.344Z,43.74
2023-05-19T05:45:28.690Z,43.81
2023-05-19T05:48:24.511Z,43.87
2023-05-19T05:51:22.555Z,43.74
2023-05-19T05:54:18.950Z,44.03
2023-05-19T05:57:15.325Z,43.86
2023-05-19T06:00:15.565Z,43.96
2023-05-19T06:03:11.074Z,44.32
2023-05-19T06:06:05.663Z,43.99
2023-05-19T06:08:59.622Z,44.16
2023-05-19T06:11:53.801Z,44.32
2023-05-19T06:14:47.967Z,44.36
2023-05-19T06:17:42.077Z,44.42
2023-05-19T06:20:36.261Z,44.46
2023-05-19T06:23:31.237Z,44.41
2023-05-19T06:26:25.130Z,44.33
2023-05-19T06:29:19.482Z,44.36
2023-05-19T06:32:13.864Z,44.58
2023-05-19T06:35:09.326Z,44.32
2023-05-19T06:38:03.241Z,44.44
2023-05-19T06:40:46.452Z,44.42
2023-05-19T06:43:40.765Z,44.58
2023-05-19T06:46:35.043Z,44.50
2023-05-19T06:49:29.976Z,44.51
2023-05-19T06:52:24.733Z,44.45
2023-05-19T06:55:18.916Z,44.57
2023-05-19T06:58:13.340Z,44.17
2023-05-19T07:01:07.438Z,44.25
2023-05-19T07:04:02.017Z,44.32
2023-05-19T07:06:56.535Z,44.37
2023-05-19T07:09:41.059Z,44.36
2023-05-19T07:12:35.539Z,44.36
2023-05-19T07:15:30.682Z,44.68
2023-05-19T07:18:25.435Z,44.55
2023-05-19T07:21:19.422Z,44.42
2023-05-19T07:24:13.550Z,44.57
2023-05-19T07:27:08.258Z,44.54
2023-05-19T07:30:04.061Z,44.42
2023-05-19T07:32:58.053Z,44.61
2023-05-19T07:35:52.516Z,44.68
2023-05-19T07:38:46.616Z,44.32
2023-05-19T07:41:40.795Z,45.46
2023-05-19T07:44:34.732Z,45.95
2023-05-19T07:47:28.545Z,44.82
2023-05-19T07:50:22.340Z,45.07
2023-05-19T07:53:16.680Z,44.79
2023-05-19T07:56:11.063Z,43.19
2023-05-19T07:59:06.017Z,43.09
2023-05-19T08:02:00.110Z,43.04
2023-05-19T08:04:54.354Z,47.47
2023-05-19T08:07:48.674Z,45.22
2023-05-19T08:10:42.726Z,45.81
2023-05-19T08:13:37.100Z,48.36
2023-05-19T08:16:31.019Z,47.12
2023-05-19T08:19:25.182Z,48.94
2023-05-19T08:22:19.303Z,49.79
2023-05-19T08:25:13.888Z,50.11
2023-05-19T08:28:07.972Z,50.71
2023-05-19T08:31:02.072Z,49.22
2023-05-19T08:33:56.042Z,49.42
2023-05-19T08:36:50.115Z,49.74
2023-05-19T08:39:44.478Z,50.92
2023-05-19T08:42:38.707Z,50.68
2023-05-19T08:45:34.661Z,50.54
2023-05-19T08:48:32.202Z,49.15
2023-05-19T08:51:34.993Z,48.94
2023-05-19T08:54:40.063Z,48.51
2023-05-19T08:57:34.692Z,48.34
2023-05-19T09:00:29.633Z,48.61
2023-05-19T09:03:26.675Z,49.05
2023-05-19T09:06:21.367Z,49.88
2023-05-19T09:09:16.024Z,50.49
2023-05-19T09:12:10.486Z,50.63
2023-05-19T09:15:05.771Z,48.45
2023-05-19T09:18:11.914Z,47.19
2023-05-19T09:21:07.489Z,45.95
2023-05-19T09:24:22.285Z,46.53
2023-05-19T09:27:22.631Z,47.15
2023-05-19T09:30:19.568Z,46.30
2023-05-19T09:33:33.483Z,45.89
2023-05-19T09:36:27.379Z,45.98
2023-05-19T09:39:23.227Z,45.80
2023-05-19T09:42:17.148Z,46.23
2023-05-19T09:45:12.854Z,46.20
2023-05-19T09:48:10.274Z,46.57
2023-05-19T09:51:06.386Z,46.64
2023-05-19T09:54:01.532Z,46.54
2023-05-19T09:57:03.719Z,46.42
2023-05-19T09:59:59.623Z,46.54
2023-05-19T10:02:55.150Z,46.77
2023-05-19T10:05:49.877Z,46.31
2023-05-19T10:08:45.141Z,46.34
2023-05-19T10:11:39.611Z,46.48
2023-05-19T10:14:34.092Z,46.21
2023-05-19T10:17:29.958Z,46.72
2023-05-19T10:20:24.247Z,46.91
2023-05-19T10:23:18.377Z,46.75
2023-05-19T10:26:13.911Z,46.94
2023-05-19T10:29:08.126Z,46.90
2023-05-19T10:32:07.860Z,46.77
2023-05-19T10:35:45.292Z,46.76
2023-05-19T10:38:54.914Z,46.53
2023-05-19T10:42:02.450Z,46.87
2023-05-19T10:45:14.934Z,47.44
2023-05-19T10:48:15.141Z,46.92
2023-05-19T10:51:12.307Z,47.37
2023-05-19T10:54:13.662Z,47.22
2023-05-19T10:57:09.949Z,47.08
2023-05-19T11:00:11.735Z,47.88
2023-05-19T11:03:24.448Z,48.28
2023-05-19T11:06:28.338Z,47.09
2023-05-19T11:09:34.037Z,47.59
2023-05-19T11:12:53.136Z,47.63
2023-05-19T11:15:49.826Z,47.04
2023-05-19T11:18:44.904Z,47.58
2023-05-19T11:21:50.883Z,47.41
2023-05-19T11:24:49.944Z,47.37
2023-05-19T11:27:47.514Z,47.04
2023-05-19T11:30:39.968Z,47.54
2023-05-19T11:33:35.301Z,47.82
2023-05-19T11:36:29.505Z,47.40
2023-05-19T11:39:24.637Z,47.29
2023-05-19T11:42:18.743Z,47.80
2023-05-19T11:45:14.440Z,47.93
2023-05-19T11:48:12.284Z,47.32
2023-05-19T11:51:07.317Z,46.68
2023-05-19T11:54:01.679Z,47.27
2023-05-19T11:56:55.548Z,47.08
2023-05-19T11:59:52.321Z,47.07
2023-05-19T12:02:46.574Z,47.20
2023-05-19T12:05:45.507Z,46.74
2023-05-19T12:08:40.964Z,46.74
2023-05-19T12:11:35.474Z,46.92
2023-05-19T12:14:32.512Z,48.82
2023-05-19T12:17:26.719Z,48.78
2023-05-19T12:20:21.505Z,46.83
2023-05-19T12:23:16.724Z,47.56
2023-05-19T12:26:11.531Z,46.42
2023-05-19T12:29:07.802Z,46.89
2023-05-19T12:32:03.094Z,47.39
2023-05-19T12:34:59.003Z,48.01
2023-05-19T12:37:53.166Z,47.29
2023-05-19T12:40:49.443Z,48.15
2023-05-19T12:43:43.681Z,48.55
2023-05-19T12:46:41.564Z,48.52
2023-05-19T12:49:36.216Z,48.60
2023-05-19T12:52:32.593Z,48.11
2023-05-19T12:55:26.796Z,48.26
2023-05-19T12:58:22.813Z,48.08
2023-05-19T13:01:21.659Z,47.15
2023-05-19T13:04:15.695Z,48.28
2023-05-19T13:07:10.087Z,48.27
2023-05-19T13:10:04.212Z,47.69
2023-05-19T13:13:00.243Z,47.62
2023-05-19T13:15:54.768Z,47.43
2023-05-19T13:18:49.016Z,48.15
2023-05-19T13:21:43.731Z,48.43
2023-05-19T13:24:36.534Z,48.45
2023-05-19T13:27:30.530Z,47.79
2023-05-19T13:30:25.820Z,47.95
2023-05-19T13:33:19.751Z,47.84
2023-05-19T13:36:13.972Z,47.96
2023-05-19T13:39:08.056Z,48.35
2023-05-19T13:42:04.959Z,48.60
2023-05-19T13:45:00.458Z,47.99
2023-05-19T13:47:44.704Z,49.38
2023-05-19T13:50:38.773Z,49.51
2023-05-19T13:53:34.595Z,48.47
2023-05-19T13:56:28.395Z,49.70
2023-05-19T13:59:22.545Z,49.49
2023-05-19T14:02:16.739Z,47.76
2023-05-19T14:05:12.064Z,47.97
2023-05-19T14:08:06.558Z,49.12
2023-05-19T14:11:00.650Z,49.29
2023-05-19T14:13:54.554Z,48.81
2023-05-19T14:16:48.979Z,51.63
2023-05-19T14:19:42.849Z,52.17
2023-05-19T14:22:36.930Z,50.93
2023-05-19T14:25:31.010Z,50.77
2023-05-19T14:28:25.089Z,51.59
2023-05-19T14:31:19.335Z,51.13
2023-05-19T14:34:17.696Z,50.58
2023-05-19T14:37:11.459Z,51.39
2023-05-19T14:40:06.872Z,50.94
2023-05-19T14:42:45.709Z,51.54
2023-05-19T14:45:41.932Z,51.82
2023-05-19T14:48:36.523Z,52.67
2023-05-19T14:51:31.738Z,51.10
2023-05-19T14:54:25.865Z,51.64
2023-05-19T14:57:19.824Z,51.05
2023-05-19T15:00:16.024Z,51.48
2023-05-19T15:03:10.279Z,51.11
2023-05-19T15:06:04.522Z,52.20
2023-05-19T15:08:58.509Z,52.56
2023-05-19T15:11:52.363Z,53.75
2023-05-19T15:14:46.920Z,53.67
2023-05-19T15:17:41.242Z,53.53
2023-05-19T15:20:35.903Z,54.02
2023-05-19T15:23:30.376Z,52.24
2023-05-19T15:26:24.400Z,53.10
2023-05-19T15:29:18.856Z,52.79
2023-05-19T15:32:13.432Z,52.22
2023-05-19T15:35:09.232Z,52.35
2023-05-19T15:38:06.251Z,52.07
2023-05-19T15:41:00.283Z,52.93
2023-05-19T15:43:54.815Z,52.54
2023-05-19T15:46:49.006Z,52.11
2023-05-19T15:49:36.824Z,52.00
2023-05-19T15:52:31.202Z,52.30
2023-05-19T15:55:25.616Z,52.28
2023-05-19T15:58:19.836Z,53.34
2023-05-19T16:01:14.115Z,53.27
2023-05-19T16:04:08.802Z,52.43
2023-05-19T16:07:02.669Z,52.27
2023-05-19T16:09:57.185Z,50.65
2023-05-19T16:12:51.250Z,51.93
2023-05-19T16:15:45.339Z,52.15
2023-05-19T16:18:40.119Z,51.57
2023-05-19T16:21:34.168Z,51.46
2023-05-19T16:24:28.467Z,51.12
2023-05-19T16:27:22.735Z,51.66
2023-05-19T16:30:17.884Z,51.08
2023-05-19T16:33:12.393Z,51.08
2023-05-19T16:36:06.893Z,51.03
2023-05-19T16:39:00.643Z,50.61
2023-05-19T16:41:54.646Z,52.17
2023-05-19T16:44:48.853Z,51.38
2023-05-19T16:47:43.029Z,51.81
2023-05-19T16:50:37.360Z,51.43
2023-05-19T16:53:31.990Z,51.20
2023-05-19T16:56:25.952Z,51.27
2023-05-19T16:59:19.887Z,50.85
2023-05-19T17:02:14.205Z,50.84
2023-05-19T17:05:09.887Z,50.56
2023-05-19T17:08:04.728Z,50.72
2023-05-19T17:10:59.188Z,50.51
2023-05-19T17:13:54.266Z,49.84
2023-05-19T17:16:48.757Z,50.32
2023-05-19T17:19:36.941Z,49.89
2023-05-19T17:22:30.990Z,49.90
2023-05-19T17:25:25.134Z,49.50
2023-05-19T17:28:19.219Z,49.53
2023-05-19T17:31:16.874Z,50.40
2023-05-19T17:34:09.777Z,50.08
2023-05-19T17:37:03.641Z,49.84
2023-05-19T17:39:57.494Z,49.23
2023-05-19T17:42:51.680Z,49.13
2023-05-19T17:45:45.749Z,50.00
2023-05-19T17:48:40.859Z,49.88
2023-05-19T17:51:35.975Z,49.75
2023-05-19T17:54:31.372Z,50.09
2023-05-19T17:57:32.414Z,49.74
2023-05-19T18:00:28.737Z,49.69
2023-05-19T18:03:24.437Z,49.79
2023-05-19T18:06:21.513Z,49.34
2023-05-19T18:09:17.615Z,51.76
2023-05-19T18:12:11.997Z,50.82
2023-05-19T18:15:06.757Z,50.20
2023-05-19T18:18:01.381Z,50.76
2023-05-19T18:20:55.365Z,50.88
2023-05-19T18:23:49.515Z,50.92
2023-05-19T18:26:43.689Z,50.48
2023-05-19T18:29:37.524Z,51.00
2023-05-19T18:32:31.776Z,51.25
2023-05-19T18:35:25.907Z,51.04
2023-05-19T18:38:20.357Z,51.08
2023-05-19T18:41:14.712Z,50.71
2023-05-19T18:44:09.051Z,50.40
2023-05-19T18:47:03.443Z,50.64
2023-05-19T18:49:57.665Z,50.18
2023-05-19T18:52:52.016Z,50.70
2023-05-19T18:55:46.557Z,50.74
2023-05-19T18:58:40.837Z,51.01
2023-05-19T19:01:34.820Z,50.69
2023-05-19T19:04:29.256Z,50.47
2023-05-19T19:07:25.758Z,50.51
2023-05-19T19:10:21.446Z,50.86
2023-05-19T19:13:19.176Z,50.90
2023-05-19T19:16:16.225Z,50.66
2023-05-19T19:19:12.763Z,50.75
2023-05-19T19:22:08.212Z,51.01
2023-05-19T19:25:02.581Z,51.28
2023-05-19T19:27:56.708Z,51.00
2023-05-19T19:30:51.210Z,51.12
2023-05-19T19:33:45.727Z,50.86
2023-05-19T19:36:39.782Z,50.77
2023-05-19T19:39:33.901Z,50.52
2023-05-19T19:42:28.169Z,50.40
2023-05-19T19:45:22.253Z,50.65
2023-05-19T19:48:16.394Z,50.68
2023-05-19T19:51:10.452Z,50.74
2023-05-19T19:54:04.583Z,50.95
2023-05-19T19:56:58.692Z,50.60
2023-05-19T19:59:57.277Z,50.41
2023-05-19T20:03:04.612Z,49.91
2023-05-19T20:06:00.296Z,50.13
2023-05-19T20:08:54.516Z,50.76
2023-05-19T20:11:48.379Z,50.40
2023-05-19T20:14:42.509Z,50.92
2023-05-19T20:17:36.826Z,50.74
2023-05-19T20:20:31.269Z,51.44
2023-05-19T20:23:25.805Z,52.03
2023-05-19T20:26:20.533Z,52.50
2023-05-19T20:29:14.660Z,52.18
2023-05-19T20:32:09.672Z,51.87
2023-05-19T20:35:04.144Z,51.68
2023-05-19T20:37:58.482Z,51.92
2023-05-19T20:40:53.831Z,51.62
2023-05-19T20:43:48.021Z,51.60
2023-05-19T20:46:41.948Z,51.53
2023-05-19T20:49:36.346Z,51.38
2023-05-19T20:52:30.766Z,50.83
2023-05-19T20:55:25.893Z,50.76
2023-05-19T20:58:20.075Z,51.25
2023-05-19T21:01:13.989Z,51.31
2023-05-19T21:04:08.016Z,51.05
2023-05-19T21:07:02.209Z,50.94
2023-05-19T21:09:57.692Z,51.62
2023-05-19T21:12:51.484Z,51.04
2023-05-19T21:15:45.961Z,51.16
2023-05-19T21:18:40.088Z,50.76
2023-05-19T21:21:34.868Z,50.97
2023-05-19T21:24:28.814Z,51.04
2023-05-19T21:27:22.922Z,50.84
2023-05-19T21:30:18.267Z,50.85
2023-05-19T21:33:12.507Z,51.20
2023-05-19T21:36:06.827Z,50.94
2023-05-19T21:39:00.894Z,50.87
2023-05-19T21:41:55.234Z,50.89
2023-05-19T21:44:54.394Z,50.25
2023-05-19T21:48:07.474Z,51.20
2023-05-19T21:51:01.587Z,51.19
2023-05-19T21:53:55.720Z,51.39
2023-05-19T21:56:49.518Z,51.22
2023-05-19T21:59:44.860Z,51.05
2023-05-19T22:02:39.161Z,50.93
2023-05-19T22:05:35.406Z,51.26
2023-05-19T22:08:29.507Z,51.34
2023-05-19T22:11:23.799Z,51.26
2023-05-19T22:14:17.618Z,51.33
2023-05-19T22:17:11.630Z,51.42
2023-05-19T22:20:05.967Z,51.43
2023-05-19T22:23:01.257Z,51.53
2023-05-19T22:25:55.278Z,52.53
2023-05-19T22:28:49.935Z,51.26
2023-05-19T22:31:43.897Z,51.08
2023-05-19T22:34:37.827Z,51.51
2023-05-19T22:37:32.288Z,51.55
2023-05-19T22:40:26.427Z,51.76
2023-05-19T22:43:20.355Z,51.66
2023-05-19T22:46:14.337Z,51.53
2023-05-19T22:49:08.081Z,51.44
2023-05-19T22:52:02.065Z,51.50
2023-05-19T22:54:55.854Z,51.36
2023-05-19T22:57:49.960Z,51.37
2023-05-19T23:00:44.275Z,51.24
2023-05-19T23:03:38.454Z,51.21
2023-05-19T23:06:32.524Z,51.09
2023-05-19T23:09:27.240Z,51.08
2023-05-19T23:12:21.641Z,51.18
2023-05-19T23:15:15.803Z,50.95
2023-05-19T23:18:18.775Z,50.91
2023-05-19T23:21:14.968Z,51.21
2023-05-19T23:24:04.569Z,51.40
2023-05-19T23:27:13.575Z,51.30
2023-05-19T23:31:41.575Z,51.58
2023-05-19T23:34:36.033Z,51.54
2023-05-19T23:37:29.886Z,51.20
2023-05-19T23:40:24.653Z,51.59
2023-05-19T23:43:18.939Z,51.67
2023-05-19T23:46:13.282Z,51.60
2023-05-19T23:49:07.510Z,51.67
2023-05-19T23:52:02.068Z,51.39
2023-05-19T23:54:56.321Z,51.37
2023-05-19T23:57:50.994Z,51.35
